createdAt,value
2019-02-26T00:02:14.854Z,7.47
2019-02-26T00:07:23.384Z,7.77
2019-02-26T00:12:26.386Z,7.26
2019-02-26T00:17:36.183Z,8.26
2019-02-26T00:22:41.104Z,7.72
2019-02-26T00:27:47.662Z,7.89
2019-02-26T00:32:53.234Z,8.29
2019-02-26T00:37:59.450Z,7.38
2019-02-26T00:43:06.633Z,7.44
2019-02-26T00:48:13.775Z,7.74
2019-02-26T00:53:21.739Z,7.29
2019-02-26T00:58:28.528Z,7.19
2019-02-26T01:03:35.799Z,8.43
2019-02-26T01:08:44.730Z,8.09
2019-02-26T01:13:50.747Z,7.54
2019-02-26T01:18:56.350Z,7.58
2019-02-26T01:24:04.238Z,8.07
2019-02-26T01:29:10.200Z,7.89
2019-02-26T01:34:18.154Z,7.25
2019-02-26T01:39:24.143Z,7.21
2019-02-26T01:44:34.583Z,7.39
2019-02-26T01:49:39.757Z,6.84
2019-02-26T01:54:45.072Z,7.21
2019-02-26T01:59:52.357Z,7.00
2019-02-26T02:05:00.120Z,7.06
2019-02-26T02:10:06.255Z,7.46
2019-02-26T02:15:15.765Z,7.56
2019-02-26T02:20:21.464Z,7.31
2019-02-26T02:25:28.974Z,7.25
2019-02-26T02:30:35.419Z,7.52
2019-02-26T02:35:40.493Z,7.34
2019-02-26T02:40:49.785Z,7.46
2019-02-26T02:45:56.361Z,7.78
2019-02-26T02:51:02.357Z,7.62
2019-02-26T02:56:10.543Z,7.52
2019-02-26T03:01:16.738Z,6.97
2019-02-26T03:06:21.569Z,7.25
2019-02-26T03:11:28.770Z,7.07
2019-02-26T03:16:35.929Z,8.86
2019-02-26T03:21:45.407Z,7.29
2019-02-26T03:26:49.785Z,7.68
2019-02-26T03:31:56.956Z,6.61
2019-02-26T03:37:06.267Z,7.36
2019-02-26T03:42:13.442Z,6.74
2019-02-26T03:47:18.722Z,6.71
2019-02-26T03:52:24.563Z,7.51
2019-02-26T03:57:33.855Z,7.29
2019-02-26T04:02:43.410Z,7.63
2019-02-26T04:07:51.726Z,6.67
2019-02-26T04:12:55.216Z,6.27
2019-02-26T04:18:01.381Z,6.55
2019-02-26T04:23:10.374Z,7.46
2019-02-26T04:28:15.316Z,6.52
2019-02-26T04:33:22.488Z,6.84
2019-02-26T04:38:31.207Z,7.42
2019-02-26T04:43:38.755Z,6.46
2019-02-26T04:48:43.203Z,6.92
2019-02-26T04:53:51.912Z,6.65
2019-02-26T04:58:57.548Z,6.96
2019-02-26T05:04:04.723Z,6.58
2019-02-26T05:09:11.893Z,6.89
2019-02-26T05:14:22.999Z,6.75
2019-02-26T05:19:25.942Z,6.41
2019-02-26T05:24:33.102Z,6.06
2019-02-26T05:29:40.987Z,6.79
2019-02-26T05:34:48.141Z,7.35
2019-02-26T05:39:54.591Z,6.34
2019-02-26T05:45:03.005Z,6.83
2019-02-26T05:50:09.514Z,6.43
2019-02-26T05:55:14.626Z,6.22
2019-02-26T06:00:22.690Z,6.09
2019-02-26T06:05:27.403Z,6.71
2019-02-26T06:10:34.619Z,6.37
2019-02-26T06:15:41.771Z,5.78
2019-02-26T06:20:50.925Z,6.41
2019-02-26T06:25:58.123Z,6.41
2019-02-26T06:31:02.365Z,5.83
2019-02-26T06:36:09.522Z,5.90
2019-02-26T06:41:16.687Z,6.05
2019-02-26T06:46:23.906Z,6.25
2019-02-26T06:51:31.399Z,5.91
2019-02-26T06:56:43.308Z,5.80
2019-02-26T07:01:45.635Z,5.84
2019-02-26T07:06:55.184Z,5.93
2019-02-26T07:11:59.795Z,5.26
2019-02-26T07:17:07.035Z,5.39
2019-02-26T07:22:15.947Z,5.72
2019-02-26T07:27:21.010Z,5.52
2019-02-26T07:32:28.427Z,5.80
2019-02-26T07:37:37.567Z,5.58
2019-02-26T07:42:46.064Z,6.04
2019-02-26T07:47:50.860Z,5.87
2019-02-26T07:52:57.585Z,5.87
2019-02-26T07:58:02.570Z,6.47
2019-02-26T08:03:09.727Z,6.32
2019-02-26T08:08:18.705Z,6.62
2019-02-26T08:13:24.398Z,5.71
2019-02-26T08:18:30.275Z,5.52
2019-02-26T08:23:37.447Z,5.75
2019-02-26T08:28:45.899Z,5.53
2019-02-26T08:33:51.863Z,5.63
2019-02-26T08:38:57.995Z,5.77
2019-02-26T08:44:05.156Z,5.96
2019-02-26T08:49:13.373Z,5.37
2019-02-26T08:54:21.104Z,5.56
2019-02-26T08:59:25.694Z,5.89
2019-02-26T09:04:35.009Z,5.40
2019-02-26T09:09:39.616Z,5.23
2019-02-26T09:14:48.158Z,5.39
2019-02-26T09:20:06.450Z,5.36
2019-02-26T09:25:02.338Z,5.29
2019-02-26T09:30:08.586Z,5.42
2019-02-26T09:35:13.529Z,8.51
2019-02-26T09:40:23.377Z,5.74
2019-02-26T09:45:29.794Z,5.64
2019-02-26T09:50:36.086Z,6.34
2019-02-26T09:55:40.932Z,3.34
2019-02-26T10:00:50.548Z,1.99
2019-02-26T10:05:55.884Z,3.08
2019-02-26T10:11:02.763Z,3.58
2019-02-26T10:16:08.941Z,4.72
2019-02-26T10:21:17.576Z,4.31
2019-02-26T10:26:26.115Z,4.12
2019-02-26T10:31:28.775Z,3.85
2019-02-26T10:36:40.701Z,4.08
2019-02-26T10:41:44.170Z,3.48
2019-02-26T10:46:50.124Z,3.81
2019-02-26T10:51:57.802Z,3.39
2019-02-26T10:57:07.460Z,3.35
2019-02-26T11:02:10.783Z,3.68
2019-02-26T11:07:17.941Z,3.57
2019-02-26T11:12:27.752Z,3.42
2019-02-26T11:17:31.877Z,3.89
2019-02-26T11:22:41.705Z,3.38
2019-02-26T11:27:46.613Z,3.39
2019-02-26T11:32:56.025Z,3.58
2019-02-26T11:37:59.150Z,3.52
2019-02-26T11:43:11.628Z,3.54
2019-02-26T11:48:13.662Z,4.40
2019-02-26T11:53:20.833Z,3.66
2019-02-26T11:58:28.002Z,4.16
2019-02-26T12:03:37.123Z,3.69
2019-02-26T12:08:43.097Z,4.55
2019-02-26T12:13:50.189Z,4.09
2019-02-26T12:18:58.879Z,4.02
2019-02-26T12:24:06.606Z,3.83
2019-02-26T12:29:11.246Z,3.62
2019-02-26T12:34:20.764Z,3.87
2019-02-26T12:39:27.907Z,4.37
2019-02-26T12:44:34.681Z,3.86
2019-02-26T12:49:41.463Z,3.78
2019-02-26T12:54:45.351Z,3.75
2019-02-26T12:59:52.528Z,3.66
2019-02-26T13:04:59.686Z,4.50
2019-02-26T13:10:06.862Z,3.84
2019-02-26T13:15:19.039Z,4.19
2019-02-26T13:20:21.084Z,4.05
2019-02-26T13:25:28.223Z,4.30
2019-02-26T13:30:35.365Z,4.14
2019-02-26T13:35:45.605Z,4.07
2019-02-26T13:40:49.655Z,4.21
2019-02-26T13:45:56.971Z,3.89
2019-02-26T13:51:04.173Z,3.71
2019-02-26T13:56:11.471Z,3.91
2019-02-26T14:01:18.680Z,4.02
2019-02-26T14:06:25.886Z,3.75
2019-02-26T14:11:33.325Z,4.08
2019-02-26T14:16:40.776Z,4.26
2019-02-26T14:21:49.185Z,4.50
2019-02-26T14:26:56.341Z,4.58
2019-02-26T14:32:03.487Z,4.41
2019-02-26T14:37:11.753Z,4.04
2019-02-26T14:42:19.000Z,4.32
2019-02-26T14:47:26.301Z,3.90
2019-02-26T14:52:33.451Z,4.43
2019-02-26T14:57:40.627Z,4.71
2019-02-26T15:02:47.818Z,4.88
2019-02-26T15:07:55.070Z,4.65
2019-02-26T15:13:02.347Z,4.67
2019-02-26T15:18:09.845Z,4.83
2019-02-26T15:23:17.043Z,5.11
2019-02-26T15:28:24.314Z,5.30
2019-02-26T15:33:31.491Z,5.33
2019-02-26T15:38:38.844Z,5.13
2019-02-26T15:43:46.001Z,5.61
2019-02-26T15:48:53.177Z,5.24
2019-02-26T15:54:01.994Z,4.86
2019-02-26T15:59:09.212Z,5.23
2019-02-26T16:04:16.824Z,5.06
2019-02-26T16:09:24.246Z,5.41
2019-02-26T16:14:31.663Z,5.33
2019-02-26T16:19:38.889Z,5.40
2019-02-26T16:24:46.645Z,5.13
2019-02-26T16:29:53.851Z,5.21
2019-02-26T16:35:01.074Z,4.88
2019-02-26T16:40:08.196Z,5.36
2019-02-26T16:45:15.353Z,5.43
2019-02-26T16:50:22.690Z,5.70
2019-02-26T16:55:30.018Z,6.64
2019-02-26T17:00:37.227Z,6.89
2019-02-26T17:05:47.218Z,6.83
2019-02-26T17:10:51.212Z,7.45
2019-02-26T17:15:59.546Z,8.54
2019-02-26T17:21:05.326Z,7.37
2019-02-26T17:26:12.448Z,7.86
2019-02-26T17:31:19.667Z,7.91
2019-02-26T17:36:26.894Z,7.59
2019-02-26T17:41:34.075Z,8.66
2019-02-26T17:46:41.240Z,7.90
2019-02-26T17:51:48.474Z,5.37
2019-02-26T17:56:57.624Z,5.40
2019-02-26T18:02:02.427Z,10.51
2019-02-26T18:07:09.622Z,21.65
2019-02-26T18:12:17.073Z,11.38
2019-02-26T18:17:24.230Z,6.97
2019-02-26T18:22:31.463Z,5.52
2019-02-26T18:27:38.611Z,5.50
2019-02-26T18:32:50.289Z,6.84
2019-02-26T18:37:52.579Z,5.19
2019-02-26T18:42:59.747Z,4.20
2019-02-26T18:48:06.910Z,4.95
2019-02-26T18:53:14.774Z,5.59
2019-02-26T18:58:20.886Z,6.15
2019-02-26T19:03:28.339Z,4.38
2019-02-26T19:08:39.184Z,3.77
2019-02-26T19:13:42.199Z,4.62
2019-02-26T19:18:50.007Z,4.22
2019-02-26T19:23:56.192Z,4.56
2019-02-26T19:29:03.646Z,4.90
2019-02-26T19:34:10.928Z,4.80
2019-02-26T19:39:18.051Z,4.95
2019-02-26T19:44:29.144Z,4.51
2019-02-26T19:49:30.061Z,4.89
2019-02-26T19:54:27.177Z,5.61
2019-02-26T19:59:34.448Z,7.36
2019-02-26T20:04:41.758Z,5.33
2019-02-26T20:09:49.118Z,4.88
2019-02-26T20:14:57.271Z,9.67
2019-02-26T20:20:05.614Z,8.32
2019-02-26T20:25:11.706Z,9.79
2019-02-26T20:30:20.472Z,5.26
2019-02-26T20:35:27.832Z,5.83
2019-02-26T20:40:35.062Z,5.96
2019-02-26T20:45:42.306Z,6.54
2019-02-26T20:50:53.559Z,6.77
2019-02-26T20:55:58.146Z,6.17
2019-02-26T21:01:05.185Z,6.84
2019-02-26T21:06:12.564Z,7.59
2019-02-26T21:11:23.154Z,7.87
2019-02-26T21:16:29.920Z,7.88
2019-02-26T21:21:37.115Z,8.00
2019-02-26T21:26:44.275Z,8.00
2019-02-26T21:31:52.076Z,9.01
2019-02-26T21:37:00.099Z,8.37
2019-02-26T21:42:05.071Z,8.47
2019-02-26T21:47:12.302Z,8.34
2019-02-26T21:52:21.061Z,9.81
2019-02-26T21:57:28.254Z,8.42
2019-02-26T22:02:35.450Z,8.42
2019-02-26T22:07:43.450Z,8.62
2019-02-26T22:12:52.149Z,9.23
2019-02-26T22:17:59.373Z,8.41
2019-02-26T22:23:08.211Z,8.50
2019-02-26T22:28:15.417Z,8.29
2019-02-26T22:33:23.556Z,8.72
2019-02-26T22:38:30.805Z,8.80
2019-02-26T22:43:37.949Z,8.71
2019-02-26T22:48:46.935Z,8.83
2019-02-26T22:53:51.811Z,8.75
2019-02-26T22:58:59.009Z,8.82
2019-02-26T23:04:06.207Z,8.97
2019-02-26T23:09:17.669Z,8.55
2019-02-26T23:14:20.021Z,8.27
2019-02-26T23:19:27.187Z,8.43
2019-02-26T23:24:34.360Z,8.37
2019-02-26T23:29:41.514Z,7.62
2019-02-26T23:34:48.681Z,8.71
2019-02-26T23:39:55.817Z,8.87
2019-02-26T23:45:02.964Z,8.66
2019-02-26T23:50:10.098Z,8.93
2019-02-26T23:55:17.279Z,8.20
